sensor_id;sensor_type;location;lat;lon;timestamp;pressure;altitude;pressure_sealevel;temperature;humidity
56807;BME280;42687;42.524;12.052;2022-08-01T00:00:19;96672.00;;;21.43;49.69
56807;BME280;42687;42.524;12.052;2022-08-01T00:02:44;96666.84;;;21.50;49.92
56807;BME280;42687;42.524;12.052;2022-08-01T00:05:10;96664.56;;;21.55;49.79
56807;BME280;42687;42.524;12.052;2022-08-01T00:07:35;96639.69;;;21.37;50.46
56807;BME280;42687;42.524;12.052;2022-08-01T00:10:04;96669.06;;;21.55;50.08
56807;BME280;42687;42.524;12.052;2022-08-01T00:12:30;96658.50;;;21.53;49.25
56807;BME280;42687;42.524;12.052;2022-08-01T00:14:56;96654.13;;;21.52;49.81
56807;BME280;42687;42.524;12.052;2022-08-01T00:17:21;96659.47;;;21.52;49.90
56807;BME280;42687;42.524;12.052;2022-08-01T00:19:47;96657.13;;;21.49;50.86
56807;BME280;42687;42.524;12.052;2022-08-01T00:22:12;96659.13;;;21.47;49.09
56807;BME280;42687;42.524;12.052;2022-08-01T00:24:37;96657.13;;;21.49;49.04
56807;BME280;42687;42.524;12.052;2022-08-01T00:27:03;96655.28;;;21.49;49.35
56807;BME280;42687;42.524;12.052;2022-08-01T00:29:29;96655.13;;;21.51;47.55
56807;BME280;42687;42.524;12.052;2022-08-01T00:31:54;96657.88;;;21.59;49.04
56807;BME280;42687;42.524;12.052;2022-08-01T00:34:19;96654.88;;;21.62;48.93
56807;BME280;42687;42.524;12.052;2022-08-01T00:36:45;96651.22;;;21.63;48.96
56807;BME280;42687;42.524;12.052;2022-08-01T00:39:12;96646.69;;;21.64;49.29
56807;BME280;42687;42.524;12.052;2022-08-01T00:41:37;96647.38;;;21.66;46.80
56807;BME280;42687;42.524;12.052;2022-08-01T00:44:03;96636.66;;;21.66;47.28
56807;BME280;42687;42.524;12.052;2022-08-01T00:46:29;96647.56;;;21.73;46.35
56807;BME280;42687;42.524;12.052;2022-08-01T00:48:54;96652.41;;;21.77;47.22
56807;BME280;42687;42.524;12.052;2022-08-01T00:51:20;96649.91;;;21.76;46.47
56807;BME280;42687;42.524;12.052;2022-08-01T00:53:46;96649.25;;;21.74;47.27
56807;BME280;42687;42.524;12.052;2022-08-01T00:56:11;96645.72;;;21.73;46.52
56807;BME280;42687;42.524;12.052;2022-08-01T00:58:37;96640.69;;;21.70;47.24
56807;BME280;42687;42.524;12.052;2022-08-01T01:01:02;96636.66;;;21.66;47.66
56807;BME280;42687;42.524;12.052;2022-08-01T01:03:28;96639.00;;;21.61;47.55
56807;BME280;42687;42.524;12.052;2022-08-01T01:06:01;96633.81;;;21.59;47.73
56807;BME280;42687;42.524;12.052;2022-08-01T01:08:32;96649.00;;;21.59;47.85
56807;BME280;42687;42.524;12.052;2022-08-01T01:11:17;96646.66;;;21.56;48.50
56807;BME280;42687;42.524;12.052;2022-08-01T01:13:49;96643.59;;;21.50;48.12
56807;BME280;42687;42.524;12.052;2022-08-01T01:16:18;96640.56;;;21.45;48.24
56807;BME280;42687;42.524;12.052;2022-08-01T01:18:49;96640.03;;;21.42;46.63
56807;BME280;42687;42.524;12.052;2022-08-01T01:29:23;96644.03;;;21.38;48.59
56807;BME280;42687;42.524;12.052;2022-08-01T01:32:04;96638.03;;;21.36;46.00
56807;BME280;42687;42.524;12.052;2022-08-01T01:34:31;96635.19;;;21.37;47.59
56807;BME280;42687;42.524;12.052;2022-08-01T01:36:59;96635.34;;;21.36;48.68
56807;BME280;42687;42.524;12.052;2022-08-01T01:39:26;96642.50;;;21.35;47.05
56807;BME280;42687;42.524;12.052;2022-08-01T01:41:54;96636.34;;;21.35;48.72
56807;BME280;42687;42.524;12.052;2022-08-01T01:44:20;96641.16;;;21.31;47.47
56807;BME280;42687;42.524;12.052;2022-08-01T01:46:49;96626.25;;;21.28;48.63
56807;BME280;42687;42.524;12.052;2022-08-01T01:49:17;96629.97;;;21.27;48.00
56807;BME280;42687;42.524;12.052;2022-08-01T01:51:44;96630.78;;;21.28;47.25
56807;BME280;42687;42.524;12.052;2022-08-01T01:54:12;96636.66;;;21.31;46.64
56807;BME280;42687;42.524;12.052;2022-08-01T01:56:38;96631.81;;;21.35;45.82
56807;BME280;42687;42.524;12.052;2022-08-01T01:59:15;96636.88;;;21.38;46.63
56807;BME280;42687;42.524;12.052;2022-08-01T02:01:42;96637.03;;;21.37;47.68
56807;BME280;42687;42.524;12.052;2022-08-01T02:04:08;96628.47;;;21.33;47.07
56807;BME280;42687;42.524;12.052;2022-08-01T02:06:34;96638.47;;;21.31;45.09
56807;BME280;42687;42.524;12.052;2022-08-01T02:09:00;96640.00;;;21.33;46.51
56807;BME280;42687;42.524;12.052;2022-08-01T02:11:26;96637.16;;;21.35;46.50
56807;BME280;42687;42.524;12.052;2022-08-01T02:14:01;96643.88;;;21.39;45.41
56807;BME280;42687;42.524;12.052;2022-08-01T02:16:34;96642.56;;;21.43;45.23
56807;BME280;42687;42.524;12.052;2022-08-01T02:19:00;96638.75;;;21.46;45.69
56807;BME280;42687;42.524;12.052;2022-08-01T02:24:12;96642.41;;;21.45;46.52
56807;BME280;42687;42.524;12.052;2022-08-01T02:26:41;96632.50;;;21.37;46.92
56807;BME280;42687;42.524;12.052;2022-08-01T02:29:07;96588.41;;;21.07;45.91
56807;BME280;42687;42.524;12.052;2022-08-01T02:31:36;96628.78;;;21.30;45.02
56807;BME280;42687;42.524;12.052;2022-08-01T02:34:04;96631.44;;;21.30;46.40
56807;BME280;42687;42.524;12.052;2022-08-01T02:36:32;96633.28;;;21.29;47.54
56807;BME280;42687;42.524;12.052;2022-08-01T02:38:59;96640.13;;;21.24;47.19
56807;BME280;42687;42.524;12.052;2022-08-01T02:41:26;96637.72;;;21.12;49.60
56807;BME280;42687;42.524;12.052;2022-08-01T02:43:53;96632.13;;;20.97;48.55
56807;BME280;42687;42.524;12.052;2022-08-01T02:46:29;96642.94;;;20.88;47.99
56807;BME280;42687;42.524;12.052;2022-08-01T02:48:56;96627.88;;;20.87;47.81
56807;BME280;42687;42.524;12.052;2022-08-01T02:51:24;96633.91;;;20.89;47.67
56807;BME280;42687;42.524;12.052;2022-08-01T02:53:51;96636.44;;;20.90;46.82
56807;BME280;42687;42.524;12.052;2022-08-01T02:56:18;96636.13;;;20.93;48.09
56807;BME280;42687;42.524;12.052;2022-08-01T02:58:45;96641.13;;;20.96;48.28
56807;BME280;42687;42.524;12.052;2022-08-01T03:01:11;96626.09;;;20.95;48.73
56807;BME280;42687;42.524;12.052;2022-08-01T03:03:37;96638.78;;;20.93;49.29
56807;BME280;42687;42.524;12.052;2022-08-01T03:06:03;96624.06;;;20.89;49.20
56807;BME280;42687;42.524;12.052;2022-08-01T03:08:29;96632.53;;;20.85;50.12
56807;BME280;42687;42.524;12.052;2022-08-01T03:10:55;96636.16;;;20.75;49.37
56807;BME280;42687;42.524;12.052;2022-08-01T03:13:23;96634.78;;;20.71;50.07
56807;BME280;42687;42.524;12.052;2022-08-01T03:15:50;96640.88;;;20.63;50.82
56807;BME280;42687;42.524;12.052;2022-08-01T03:18:18;96642.94;;;20.52;50.31
56807;BME280;42687;42.524;12.052;2022-08-01T03:20:44;96634.50;;;20.38;51.91
56807;BME280;42687;42.524;12.052;2022-08-01T03:23:11;96642.59;;;20.28;50.90
56807;BME280;42687;42.524;12.052;2022-08-01T03:25:39;96636.31;;;20.20;51.59
56807;BME280;42687;42.524;12.052;2022-08-01T03:28:05;96628.84;;;20.05;52.26
56807;BME280;42687;42.524;12.052;2022-08-01T03:30:32;96639.09;;;20.10;52.17
56807;BME280;42687;42.524;12.052;2022-08-01T03:32:58;96637.88;;;20.04;52.95
56807;BME280;42687;42.524;12.052;2022-08-01T03:35:35;96641.56;;;19.93;53.94
56807;BME280;42687;42.524;12.052;2022-08-01T03:38:03;96642.34;;;19.86;54.23
56807;BME280;42687;42.524;12.052;2022-08-01T03:43:00;96632.53;;;19.76;54.82
56807;BME280;42687;42.524;12.052;2022-08-01T03:45:30;96635.38;;;19.75;53.85
56807;BME280;42687;42.524;12.052;2022-08-01T03:48:01;96636.88;;;19.77;55.10
56807;BME280;42687;42.524;12.052;2022-08-01T03:50:28;96629.72;;;19.78;51.67
56807;BME280;42687;42.524;12.052;2022-08-01T03:52:57;96640.97;;;19.81;54.88
56807;BME280;42687;42.524;12.052;2022-08-01T03:55:22;96637.56;;;19.79;54.63
56807;BME280;42687;42.524;12.052;2022-08-01T03:57:49;96644.34;;;19.74;55.89
56807;BME280;42687;42.524;12.052;2022-08-01T04:00:15;96647.06;;;19.64;56.59
56807;BME280;42687;42.524;12.052;2022-08-01T04:02:46;96646.72;;;19.49;56.88
56807;BME280;42687;42.524;12.052;2022-08-01T04:05:12;96653.66;;;19.32;57.67
56807;BME280;42687;42.524;12.052;2022-08-01T04:07:38;96646.94;;;19.28;57.64
56807;BME280;42687;42.524;12.052;2022-08-01T04:10:08;96646.94;;;19.28;57.58
56807;BME280;42687;42.524;12.052;2022-08-01T04:12:34;96647.34;;;19.33;57.86
56807;BME280;42687;42.524;12.052;2022-08-01T04:14:59;96650.44;;;19.38;57.87
56807;BME280;42687;42.524;12.052;2022-08-01T04:17:25;96648.31;;;19.42;56.90
56807;BME280;42687;42.524;12.052;2022-08-01T04:19:50;96656.16;;;19.43;56.86
56807;BME280;42687;42.524;12.052;2022-08-01T04:22:16;96653.50;;;19.43;56.84
56807;BME280;42687;42.524;12.052;2022-08-01T04:24:46;96648.31;;;19.42;56.61
56807;BME280;42687;42.524;12.052;2022-08-01T04:27:17;96651.81;;;19.42;56.29
56807;BME280;42687;42.524;12.052;2022-08-01T04:29:44;96652.50;;;19.44;56.52
56807;BME280;42687;42.524;12.052;2022-08-01T04:32:12;96654.56;;;19.50;56.64
56807;BME280;42687;42.524;12.052;2022-08-01T04:34:39;96645.59;;;19.52;56.62
56807;BME280;42687;42.524;12.052;2022-08-01T04:37:05;96663.13;;;19.54;56.23
56807;BME280;42687;42.524;12.052;2022-08-01T04:39:32;96661.16;;;19.56;54.99
56807;BME280;42687;42.524;12.052;2022-08-01T04:42:01;96657.47;;;19.57;55.67
56807;BME280;42687;42.524;12.052;2022-08-01T04:44:29;96668.00;;;19.59;55.79
56807;BME280;42687;42.524;12.052;2022-08-01T04:46:58;96673.47;;;19.57;56.55
56807;BME280;42687;42.524;12.052;2022-08-01T04:49:24;96669.28;;;19.55;55.40
56807;BME280;42687;42.524;12.052;2022-08-01T04:51:53;96667.00;;;19.60;52.34
56807;BME280;42687;42.524;12.052;2022-08-01T04:54:23;96668.13;;;19.67;55.09
56807;BME280;42687;42.524;12.052;2022-08-01T04:56:50;96672.25;;;19.79;52.12
56807;BME280;42687;42.524;12.052;2022-08-01T04:59:15;96671.38;;;19.89;54.23
56807;BME280;42687;42.524;12.052;2022-08-01T05:02:00;96665.91;;;19.90;54.96
56807;BME280;42687;42.524;12.052;2022-08-01T05:04:25;96673.59;;;19.93;54.87
56807;BME280;42687;42.524;12.052;2022-08-01T05:06:51;96671.63;;;19.95;54.00
56807;BME280;42687;42.524;12.052;2022-08-01T05:09:16;96668.22;;;20.03;54.22
56807;BME280;42687;42.524;12.052;2022-08-01T05:11:42;96669.59;;;20.07;49.79
56807;BME280;42687;42.524;12.052;2022-08-01T05:14:07;96672.06;;;20.19;50.92
56807;BME280;42687;42.524;12.052;2022-08-01T05:16:33;96680.28;;;20.25;50.50
56807;BME280;42687;42.524;12.052;2022-08-01T05:18:58;96682.56;;;20.38;50.18
56807;BME280;42687;42.524;12.052;2022-08-01T05:21:24;96682.72;;;20.55;47.60
56807;BME280;42687;42.524;12.052;2022-08-01T05:23:50;96686.00;;;20.66;48.43
56807;BME280;42687;42.524;12.052;2022-08-01T05:26:15;96675.94;;;20.78;49.35
56807;BME280;42687;42.524;12.052;2022-08-01T05:28:41;96683.03;;;20.88;49.30
56807;BME280;42687;42.524;12.052;2022-08-01T05:31:06;96682.53;;;20.92;48.51
56807;BME280;42687;42.524;12.052;2022-08-01T05:33:32;96679.78;;;21.02;45.80
56807;BME280;42687;42.524;12.052;2022-08-01T05:35:58;96686.38;;;21.16;45.45
56807;BME280;42687;42.524;12.052;2022-08-01T05:38:23;96689.47;;;21.29;44.04
56807;BME280;42687;42.524;12.052;2022-08-01T05:40:49;96690.56;;;21.45;44.67
56807;BME280;42687;42.524;12.052;2022-08-01T05:43:14;96687.78;;;21.55;46.38
56807;BME280;42687;42.524;12.052;2022-08-01T05:45:40;96691.00;;;21.66;45.62
56807;BME280;42687;42.524;12.052;2022-08-01T05:48:06;96695.22;;;21.77;44.19
56807;BME280;42687;42.524;12.052;2022-08-01T05:50:32;96703.47;;;21.84;42.84
56807;BME280;42687;42.524;12.052;2022-08-01T05:52:58;96695.31;;;21.94;44.01
56807;BME280;42687;42.524;12.052;2022-08-01T05:55:24;96701.03;;;22.07;43.24
56807;BME280;42687;42.524;12.052;2022-08-01T05:57:49;96700.75;;;22.27;42.25
56807;BME280;42687;42.524;12.052;2022-08-01T06:00:15;96705.34;;;22.51;43.22
56807;BME280;42687;42.524;12.052;2022-08-01T06:02:41;96709.53;;;22.78;42.07
56807;BME280;42687;42.524;12.052;2022-08-01T06:05:08;96702.47;;;23.35;41.96
56807;BME280;42687;42.524;12.052;2022-08-01T06:07:34;96699.34;;;24.19;40.49
56807;BME280;42687;42.524;12.052;2022-08-01T06:09:59;96646.94;;;24.70;39.62
56807;BME280;42687;42.524;12.052;2022-08-01T06:12:24;96712.56;;;25.96;38.81
56807;BME280;42687;42.524;12.052;2022-08-01T06:14:50;96709.75;;;26.71;38.80
56807;BME280;42687;42.524;12.052;2022-08-01T06:17:15;96709.00;;;27.34;38.52
56807;BME280;42687;42.524;12.052;2022-08-01T06:19:41;96717.88;;;27.91;38.78
56807;BME280;42687;42.524;12.052;2022-08-01T06:22:06;96722.69;;;28.44;38.73
56807;BME280;42687;42.524;12.052;2022-08-01T06:24:32;96718.47;;;28.84;38.60
56807;BME280;42687;42.524;12.052;2022-08-01T06:26:58;96720.97;;;29.25;38.71
56807;BME280;42687;42.524;12.052;2022-08-01T06:29:23;96719.91;;;29.60;38.20
56807;BME280;42687;42.524;12.052;2022-08-01T06:31:49;96727.59;;;29.90;38.24
56807;BME280;42687;42.524;12.052;2022-08-01T06:34:15;96717.47;;;30.17;38.56
56807;BME280;42687;42.524;12.052;2022-08-01T06:36:40;96732.38;;;30.40;38.16
56807;BME280;42687;42.524;12.052;2022-08-01T06:39:06;96720.03;;;30.57;38.27
56807;BME280;42687;42.524;12.052;2022-08-01T06:41:32;96731.53;;;30.85;38.02
56807;BME280;42687;42.524;12.052;2022-08-01T06:43:57;96734.13;;;31.05;37.29
56807;BME280;42687;42.524;12.052;2022-08-01T06:46:25;96716.56;;;31.07;37.15
56807;BME280;42687;42.524;12.052;2022-08-01T06:48:50;96740.81;;;31.34;36.61
56807;BME280;42687;42.524;12.052;2022-08-01T06:51:16;96746.28;;;31.53;36.30
56807;BME280;42687;42.524;12.052;2022-08-01T06:53:44;96740.38;;;31.81;35.94
56807;BME280;42687;42.524;12.052;2022-08-01T06:56:10;96741.69;;;31.97;35.38
56807;BME280;42687;42.524;12.052;2022-08-01T06:58:35;96745.75;;;31.88;35.27
56807;BME280;42687;42.524;12.052;2022-08-01T07:01:02;96746.00;;;31.86;35.25
56807;BME280;42687;42.524;12.052;2022-08-01T07:03:31;96743.78;;;31.95;34.92
56807;BME280;42687;42.524;12.052;2022-08-01T07:05:57;96750.50;;;32.18;34.75
56807;BME280;42687;42.524;12.052;2022-08-01T07:08:22;96751.47;;;32.23;34.81
56807;BME280;42687;42.524;12.052;2022-08-01T07:10:48;96756.50;;;32.38;34.71
56807;BME280;42687;42.524;12.052;2022-08-01T07:13:13;96742.41;;;32.30;34.97
56807;BME280;42687;42.524;12.052;2022-08-01T07:15:41;96750.31;;;32.31;35.01
56807;BME280;42687;42.524;12.052;2022-08-01T07:18:07;96756.03;;;32.41;35.07
56807;BME280;42687;42.524;12.052;2022-08-01T07:20:33;96724.41;;;32.29;35.13
56807;BME280;42687;42.524;12.052;2022-08-01T07:22:58;96750.13;;;32.63;35.27
56807;BME280;42687;42.524;12.052;2022-08-01T07:25:24;96752.53;;;32.71;34.86
56807;BME280;42687;42.524;12.052;2022-08-01T07:27:49;96748.13;;;32.70;35.05
56807;BME280;42687;42.524;12.052;2022-08-01T07:30:15;96752.06;;;32.74;34.97
56807;BME280;42687;42.524;12.052;2022-08-01T07:32:40;96751.91;;;32.69;35.08
56807;BME280;42687;42.524;12.052;2022-08-01T07:35:06;96707.28;;;32.40;35.31
56807;BME280;42687;42.524;12.052;2022-08-01T07:37:32;96752.97;;;32.87;34.96
56807;BME280;42687;42.524;12.052;2022-08-01T07:39:57;96744.34;;;33.02;34.64
56807;BME280;42687;42.524;12.052;2022-08-01T07:42:23;96746.69;;;32.98;34.65
56807;BME280;42687;42.524;12.052;2022-08-01T07:44:48;96752.03;;;33.05;34.62
56807;BME280;42687;42.524;12.052;2022-08-01T07:47:14;96742.41;;;33.33;34.28
56807;BME280;42687;42.524;12.052;2022-08-01T07:49:40;96722.03;;;33.47;33.91
56807;BME280;42687;42.524;12.052;2022-08-01T07:52:06;96747.31;;;33.66;33.93
56807;BME280;42687;42.524;12.052;2022-08-01T07:54:32;96754.78;;;33.83;33.69
56807;BME280;42687;42.524;12.052;2022-08-01T07:56:57;96738.41;;;33.95;33.38
56807;BME280;42687;42.524;12.052;2022-08-01T07:59:23;96745.66;;;34.01;33.16
56807;BME280;42687;42.524;12.052;2022-08-01T08:01:51;96737.66;;;34.11;33.16
56807;BME280;42687;42.524;12.052;2022-08-01T08:04:17;96740.97;;;34.13;33.23
56807;BME280;42687;42.524;12.052;2022-08-01T08:06:43;96738.69;;;31.36;31.41
56807;BME280;42687;42.524;12.052;2022-08-01T08:09:10;96743.16;;;32.67;30.59
56807;BME280;42687;42.524;12.052;2022-08-01T08:11:35;96744.13;;;33.15;30.37
56807;BME280;42687;42.524;12.052;2022-08-01T08:14:01;96751.13;;;33.23;27.50
56807;BME280;42687;42.524;12.052;2022-08-01T08:16:26;96742.66;;;31.59;30.11
56807;BME280;42687;42.524;12.052;2022-08-01T08:18:52;96741.44;;;32.85;29.28
56807;BME280;42687;42.524;12.052;2022-08-01T08:21:17;96747.50;;;33.53;28.96
56807;BME280;42687;42.524;12.052;2022-08-01T08:23:43;96742.84;;;31.14;31.19
56807;BME280;42687;42.524;12.052;2022-08-01T08:26:27;96737.28;;;32.15;30.98
56807;BME280;42687;42.524;12.052;2022-08-01T08:28:52;96745.75;;;33.35;30.01
56807;BME280;42687;42.524;12.052;2022-08-01T08:31:18;96758.56;;;31.12;30.46
56807;BME280;42687;42.524;12.052;2022-08-01T08:33:43;96747.75;;;31.99;29.31
56807;BME280;42687;42.524;12.052;2022-08-01T08:36:09;96755.34;;;32.95;28.63
56807;BME280;42687;42.524;12.052;2022-08-01T08:38:36;96749.00;;;31.78;28.12
56807;BME280;42687;42.524;12.052;2022-08-01T08:41:01;96758.81;;;31.28;27.95
56807;BME280;42687;42.524;12.052;2022-08-01T08:43:27;96762.84;;;31.19;29.80
56807;BME280;42687;42.524;12.052;2022-08-01T08:45:53;96761.09;;;31.32;29.94
56807;BME280;42687;42.524;12.052;2022-08-01T08:48:19;96761.56;;;32.84;27.89
56807;BME280;42687;42.524;12.052;2022-08-01T08:50:44;96761.63;;;32.28;27.87
56807;BME280;42687;42.524;12.052;2022-08-01T08:53:10;96764.25;;;31.54;25.56
56807;BME280;42687;42.524;12.052;2022-08-01T08:55:38;96778.06;;;31.27;27.86
56807;BME280;42687;42.524;12.052;2022-08-01T08:58:05;96761.16;;;31.25;30.27
56807;BME280;42687;42.524;12.052;2022-08-01T09:00:32;96767.53;;;32.25;27.52
56807;BME280;42687;42.524;12.052;2022-08-01T09:02:57;96775.00;;;33.51;26.53
56807;BME280;42687;42.524;12.052;2022-08-01T09:05:23;96772.91;;;32.32;27.29
56807;BME280;42687;42.524;12.052;2022-08-01T09:07:52;96776.25;;;31.71;28.61
56807;BME280;42687;42.524;12.052;2022-08-01T09:10:18;96778.69;;;31.98;27.18
56807;BME280;42687;42.524;12.052;2022-08-01T09:15:38;96774.53;;;31.96;26.75
56807;BME280;42687;42.524;12.052;2022-08-01T09:18:03;96765.09;;;31.80;26.97
56807;BME280;42687;42.524;12.052;2022-08-01T09:20:29;96775.50;;;31.83;26.85
56807;BME280;42687;42.524;12.052;2022-08-01T09:22:54;96773.84;;;31.82;26.07
56807;BME280;42687;42.524;12.052;2022-08-01T09:25:20;96768.84;;;31.79;26.31
56807;BME280;42687;42.524;12.052;2022-08-01T09:27:46;96771.44;;;31.92;28.35
56807;BME280;42687;42.524;12.052;2022-08-01T09:30:18;96765.25;;;32.03;24.79
56807;BME280;42687;42.524;12.052;2022-08-01T09:32:53;96764.06;;;32.55;25.17
56807;BME280;42687;42.524;12.052;2022-08-01T09:37:51;96761.31;;;31.81;28.19
56807;BME280;42687;42.524;12.052;2022-08-01T09:40:17;96764.69;;;32.20;24.75
56807;BME280;42687;42.524;12.052;2022-08-01T09:42:42;96758.47;;;31.94;24.91
56807;BME280;42687;42.524;12.052;2022-08-01T09:45:08;96758.53;;;32.06;28.33
56807;BME280;42687;42.524;12.052;2022-08-01T09:47:37;96758.13;;;32.58;25.11
56807;BME280;42687;42.524;12.052;2022-08-01T09:50:03;96756.22;;;32.58;24.11
56807;BME280;42687;42.524;12.052;2022-08-01T09:52:29;96764.81;;;32.92;25.40
56807;BME280;42687;42.524;12.052;2022-08-01T09:55:04;96761.13;;;32.87;24.62
56807;BME280;42687;42.524;12.052;2022-08-01T09:57:30;96748.91;;;32.78;24.08
56807;BME280;42687;42.524;12.052;2022-08-01T09:59:56;96753.78;;;32.87;24.68
56807;BME280;42687;42.524;12.052;2022-08-01T10:04:53;96751.09;;;32.99;27.26
56807;BME280;42687;42.524;12.052;2022-08-01T10:07:20;96746.13;;;32.96;25.33
56807;BME280;42687;42.524;12.052;2022-08-01T10:09:46;96751.66;;;33.43;24.48
56807;BME280;42687;42.524;12.052;2022-08-01T10:12:13;96749.72;;;33.20;23.55
56807;BME280;42687;42.524;12.052;2022-08-01T10:14:39;96748.03;;;33.19;23.21
56807;BME280;42687;42.524;12.052;2022-08-01T10:17:06;96751.81;;;33.06;23.73
56807;BME280;42687;42.524;12.052;2022-08-01T10:19:32;96745.50;;;32.94;24.55
56807;BME280;42687;42.524;12.052;2022-08-01T10:22:00;96742.03;;;33.17;23.15
56807;BME280;42687;42.524;12.052;2022-08-01T10:24:28;96745.56;;;33.18;21.40
56807;BME280;42687;42.524;12.052;2022-08-01T10:26:55;96736.38;;;33.31;22.83
56807;BME280;42687;42.524;12.052;2022-08-01T10:29:23;96738.50;;;33.52;23.36
56807;BME280;42687;42.524;12.052;2022-08-01T10:31:50;96720.25;;;33.53;22.50
56807;BME280;42687;42.524;12.052;2022-08-01T10:34:16;96728.00;;;33.02;23.71
56807;BME280;42687;42.524;12.052;2022-08-01T10:36:45;96728.91;;;33.38;24.07
56807;BME280;42687;42.524;12.052;2022-08-01T10:39:11;96733.88;;;33.65;20.11
56807;BME280;42687;42.524;12.052;2022-08-01T10:41:37;96724.41;;;33.67;24.29
56807;BME280;42687;42.524;12.052;2022-08-01T10:44:03;96715.72;;;34.06;21.79
56807;BME280;42687;42.524;12.052;2022-08-01T10:46:32;96714.34;;;33.91;21.77
56807;BME280;42687;42.524;12.052;2022-08-01T10:49:11;96685.44;;;33.55;20.03
56807;BME280;42687;42.524;12.052;2022-08-01T10:51:39;96710.78;;;33.91;21.27
56807;BME280;42687;42.524;12.052;2022-08-01T10:54:05;96710.25;;;34.06;20.89
56807;BME280;42687;42.524;12.052;2022-08-01T10:56:47;96709.19;;;34.07;21.85
56807;BME280;42687;42.524;12.052;2022-08-01T10:59:22;96707.44;;;34.13;21.51
56807;BME280;42687;42.524;12.052;2022-08-01T11:01:59;96702.00;;;34.01;20.39
56807;BME280;42687;42.524;12.052;2022-08-01T11:04:33;96705.06;;;33.69;20.78
56807;BME280;42687;42.524;12.052;2022-08-01T11:07:05;96693.69;;;33.96;22.08
56807;BME280;42687;42.524;12.052;2022-08-01T11:09:39;96694.47;;;34.20;21.37
56807;BME280;42687;42.524;12.052;2022-08-01T11:12:06;96685.53;;;34.24;21.27
56807;BME280;42687;42.524;12.052;2022-08-01T11:17:36;96682.56;;;33.85;21.96
56807;BME280;42687;42.524;12.052;2022-08-01T11:22:30;96682.47;;;33.56;21.84
56807;BME280;42687;42.524;12.052;2022-08-01T11:24:55;96651.41;;;33.46;23.13
56807;BME280;42687;42.524;12.052;2022-08-01T11:27:25;96679.31;;;34.00;25.20
56807;BME280;42687;42.524;12.052;2022-08-01T11:30:25;96675.66;;;34.47;22.67
56807;BME280;42687;42.524;12.052;2022-08-01T11:32:53;96663.38;;;34.21;21.69
56807;BME280;42687;42.524;12.052;2022-08-01T11:35:20;96670.28;;;34.12;20.87
56807;BME280;42687;42.524;12.052;2022-08-01T11:37:48;96668.56;;;33.94;22.14
56807;BME280;42687;42.524;12.052;2022-08-01T11:42:39;96664.63;;;34.42;22.26
56807;BME280;42687;42.524;12.052;2022-08-01T11:45:05;96657.50;;;34.41;22.39
56807;BME280;42687;42.524;12.052;2022-08-01T11:50:33;96662.06;;;34.23;22.39
56807;BME280;42687;42.524;12.052;2022-08-01T11:53:00;96658.50;;;33.70;23.60
56807;BME280;42687;42.524;12.052;2022-08-01T11:55:26;96658.50;;;33.94;24.26
56807;BME280;42687;42.524;12.052;2022-08-01T11:58:03;96657.44;;;34.24;21.87
56807;BME280;42687;42.524;12.052;2022-08-01T12:00:29;96602.06;;;34.40;22.09
56807;BME280;42687;42.524;12.052;2022-08-01T12:03:00;96655.06;;;34.73;21.65
56807;BME280;42687;42.524;12.052;2022-08-01T12:05:26;96640.34;;;34.74;22.79
56807;BME280;42687;42.524;12.052;2022-08-01T12:07:53;96640.59;;;35.24;21.42
56807;BME280;42687;42.524;12.052;2022-08-01T12:10:21;96645.34;;;35.29;20.51
56807;BME280;42687;42.524;12.052;2022-08-01T12:12:48;96635.34;;;34.83;21.29
56807;BME280;42687;42.524;12.052;2022-08-01T12:15:14;96631.63;;;34.44;21.58
56807;BME280;42687;42.524;12.052;2022-08-01T12:17:42;96643.88;;;34.00;22.76
56807;BME280;42687;42.524;12.052;2022-08-01T12:20:08;96635.19;;;34.44;21.99
56807;BME280;42687;42.524;12.052;2022-08-01T12:22:34;96631.84;;;34.88;22.80
56807;BME280;42687;42.524;12.052;2022-08-01T12:27:33;96625.34;;;34.60;21.22
56807;BME280;42687;42.524;12.052;2022-08-01T12:29:59;96627.19;;;34.54;22.82
56807;BME280;42687;42.524;12.052;2022-08-01T12:32:29;96621.19;;;34.40;20.75
56807;BME280;42687;42.524;12.052;2022-08-01T12:35:10;96622.16;;;34.97;22.56
56807;BME280;42687;42.524;12.052;2022-08-01T12:37:46;96620.53;;;34.33;22.01
56807;BME280;42687;42.524;12.052;2022-08-01T12:42:39;96616.78;;;32.33;24.93
56807;BME280;42687;42.524;12.052;2022-08-01T12:45:06;96623.13;;;32.69;25.47
56807;BME280;42687;42.524;12.052;2022-08-01T12:47:33;96622.22;;;32.75;25.67
56807;BME280;42687;42.524;12.052;2022-08-01T12:49:59;96608.38;;;33.59;22.51
56807;BME280;42687;42.524;12.052;2022-08-01T12:52:25;96606.41;;;34.53;24.04
56807;BME280;42687;42.524;12.052;2022-08-01T12:55:04;96605.44;;;34.31;24.65
56807;BME280;42687;42.524;12.052;2022-08-01T12:57:30;96614.91;;;32.99;24.35
56807;BME280;42687;42.524;12.052;2022-08-01T13:00:07;96598.47;;;33.30;25.02
56807;BME280;42687;42.524;12.052;2022-08-01T13:02:33;96602.03;;;34.23;23.50
56807;BME280;42687;42.524;12.052;2022-08-01T13:04:59;96599.16;;;33.49;22.56
56807;BME280;42687;42.524;12.052;2022-08-01T13:10:09;96597.41;;;33.95;24.39
56807;BME280;42687;42.524;12.052;2022-08-01T13:12:35;96597.06;;;34.66;24.91
56807;BME280;42687;42.524;12.052;2022-08-01T13:15:17;96585.94;;;34.85;24.58
56807;BME280;42687;42.524;12.052;2022-08-01T13:17:43;96599.56;;;34.68;23.40
56807;BME280;42687;42.524;12.052;2022-08-01T13:20:09;96599.13;;;34.76;23.52
56807;BME280;42687;42.524;12.052;2022-08-01T13:22:35;96593.19;;;34.79;21.91
56807;BME280;42687;42.524;12.052;2022-08-01T13:25:14;96592.28;;;35.07;23.30
56807;BME280;42687;42.524;12.052;2022-08-01T13:27:40;96587.53;;;35.20;21.84
56807;BME280;42687;42.524;12.052;2022-08-01T13:30:11;96590.97;;;34.93;21.70